sensor_id;sensor_type;location;lat;lon;timestamp;P1;durP1;ratioP1;P2;durP2;ratioP2
25187;SDS011;13141;50.414;8.050;2022-07-23T00:00:10;0.15;;;0.15;;
25187;SDS011;13141;50.414;8.050;2022-07-23T00:02:36;0.20;;;0.20;;
25187;SDS011;13141;50.414;8.050;2022-07-23T00:05:02;0.10;;;0.10;;
25187;SDS011;13141;50.414;8.050;2022-07-23T00:07:28;0.20;;;0.20;;
25187;SDS011;13141;50.414;8.050;2022-07-23T00:09:53;0.20;;;0.20;;
25187;SDS011;13141;50.414;8.050;2022-07-23T00:12:19;0.10;;;0.10;;
25187;SDS011;13141;50.414;8.050;2022-07-23T00:14:45;0.20;;;0.20;;
25187;SDS011;13141;50.414;8.050;2022-07-23T00:17:11;0.10;;;0.10;;
25187;SDS011;13141;50.414;8.050;2022-07-23T00:19:37;0.20;;;0.20;;
25187;SDS011;13141;50.414;8.050;2022-07-23T00:22:02;0.20;;;0.20;;
25187;SDS011;13141;50.414;8.050;2022-07-23T00:24:28;0.20;;;0.20;;
25187;SDS011;13141;50.414;8.050;2022-07-23T00:26:53;0.20;;;0.20;;
25187;SDS011;13141;50.414;8.050;2022-07-23T00:29:19;0.15;;;0.15;;
25187;SDS011;13141;50.414;8.050;2022-07-23T00:31:44;0.10;;;0.10;;
25187;SDS011;13141;50.414;8.050;2022-07-23T00:34:10;0.20;;;0.20;;
25187;SDS011;13141;50.414;8.050;2022-07-23T00:36:36;0.20;;;0.20;;
25187;SDS011;13141;50.414;8.050;2022-07-23T00:39:01;0.20;;;0.20;;
25187;SDS011;13141;50.414;8.050;2022-07-23T00:41:27;0.20;;;0.20;;
25187;SDS011;13141;50.414;8.050;2022-07-23T00:43:53;0.20;;;0.20;;
25187;SDS011;13141;50.414;8.050;2022-07-23T00:46:19;0.20;;;0.20;;
25187;SDS011;13141;50.414;8.050;2022-07-23T00:48:45;0.10;;;0.10;;
25187;SDS011;13141;50.414;8.050;2022-07-23T00:51:10;0.10;;;0.10;;
25187;SDS011;13141;50.414;8.050;2022-07-23T00:53:36;0.20;;;0.20;;
25187;SDS011;13141;50.414;8.050;2022-07-23T00:56:02;0.10;;;0.10;;
25187;SDS011;13141;50.414;8.050;2022-07-23T00:58:27;0.20;;;0.20;;
25187;SDS011;13141;50.414;8.050;2022-07-23T01:00:53;0.20;;;0.20;;
25187;SDS011;13141;50.414;8.050;2022-07-23T01:03:19;0.17;;;0.17;;
25187;SDS011;13141;50.414;8.050;2022-07-23T01:05:45;0.20;;;0.20;;
25187;SDS011;13141;50.414;8.050;2022-07-23T01:08:10;0.10;;;0.10;;
25187;SDS011;13141;50.414;8.050;2022-07-23T01:10:37;0.10;;;0.10;;
25187;SDS011;13141;50.414;8.050;2022-07-23T01:13:03;0.10;;;0.10;;
25187;SDS011;13141;50.414;8.050;2022-07-23T01:15:31;0.10;;;0.10;;
25187;SDS011;13141;50.414;8.050;2022-07-23T01:17:57;0.10;;;0.10;;
25187;SDS011;13141;50.414;8.050;2022-07-23T01:20:23;0.20;;;0.20;;
25187;SDS011;13141;50.414;8.050;2022-07-23T01:22:49;0.20;;;0.20;;
25187;SDS011;13141;50.414;8.050;2022-07-23T01:25:15;0.20;;;0.20;;
25187;SDS011;13141;50.414;8.050;2022-07-23T01:27:41;0.10;;;0.10;;
25187;SDS011;13141;50.414;8.050;2022-07-23T01:30:07;0.20;;;0.20;;
25187;SDS011;13141;50.414;8.050;2022-07-23T01:32:33;0.13;;;0.13;;
25187;SDS011;13141;50.414;8.050;2022-07-23T01:34:58;0.20;;;0.20;;
25187;SDS011;13141;50.414;8.050;2022-07-23T01:37:24;0.13;;;0.13;;
25187;SDS011;13141;50.414;8.050;2022-07-23T01:39:49;0.20;;;0.20;;
25187;SDS011;13141;50.414;8.050;2022-07-23T01:42:15;0.10;;;0.10;;
25187;SDS011;13141;50.414;8.050;2022-07-23T01:44:40;0.10;;;0.10;;
25187;SDS011;13141;50.414;8.050;2022-07-23T01:47:06;0.10;;;0.10;;
25187;SDS011;13141;50.414;8.050;2022-07-23T01:49:32;0.20;;;0.20;;
25187;SDS011;13141;50.414;8.050;2022-07-23T01:51:57;0.17;;;0.17;;
25187;SDS011;13141;50.414;8.050;2022-07-23T01:54:30;0.20;;;0.20;;
25187;SDS011;13141;50.414;8.050;2022-07-23T01:56:57;0.10;;;0.10;;
25187;SDS011;13141;50.414;8.050;2022-07-23T01:59:23;0.20;;;0.20;;
25187;SDS011;13141;50.414;8.050;2022-07-23T02:01:50;0.13;;;0.13;;
25187;SDS011;13141;50.414;8.050;2022-07-23T02:04:16;0.15;;;0.15;;
25187;SDS011;13141;50.414;8.050;2022-07-23T02:06:45;0.10;;;0.10;;
25187;SDS011;13141;50.414;8.050;2022-07-23T02:09:11;0.10;;;0.10;;
25187;SDS011;13141;50.414;8.050;2022-07-23T02:11:37;0.20;;;0.20;;
25187;SDS011;13141;50.414;8.050;2022-07-23T02:14:03;0.10;;;0.10;;
25187;SDS011;13141;50.414;8.050;2022-07-23T02:16:28;0.17;;;0.17;;
25187;SDS011;13141;50.414;8.050;2022-07-23T02:18:54;0.20;;;0.20;;
25187;SDS011;13141;50.414;8.050;2022-07-23T02:21:19;0.20;;;0.20;;
25187;SDS011;13141;50.414;8.050;2022-07-23T02:23:45;0.15;;;0.15;;
25187;SDS011;13141;50.414;8.050;2022-07-23T02:26:11;0.20;;;0.20;;
25187;SDS011;13141;50.414;8.050;2022-07-23T02:28:37;0.10;;;0.10;;
25187;SDS011;13141;50.414;8.050;2022-07-23T02:31:02;0.13;;;0.13;;
25187;SDS011;13141;50.414;8.050;2022-07-23T02:33:28;0.10;;;0.10;;
25187;SDS011;13141;50.414;8.050;2022-07-23T02:35:54;0.10;;;0.10;;
25187;SDS011;13141;50.414;8.050;2022-07-23T02:38:19;0.10;;;0.10;;
25187;SDS011;13141;50.414;8.050;2022-07-23T02:40:45;0.20;;;0.20;;
25187;SDS011;13141;50.414;8.050;2022-07-23T02:43:10;0.10;;;0.10;;
25187;SDS011;13141;50.414;8.050;2022-07-23T02:45:36;0.10;;;0.10;;
25187;SDS011;13141;50.414;8.050;2022-07-23T02:48:01;0.10;;;0.10;;
25187;SDS011;13141;50.414;8.050;2022-07-23T02:50:27;0.10;;;0.10;;
25187;SDS011;13141;50.414;8.050;2022-07-23T02:52:53;0.10;;;0.10;;
25187;SDS011;13141;50.414;8.050;2022-07-23T02:55:19;0.10;;;0.10;;
25187;SDS011;13141;50.414;8.050;2022-07-23T02:57:44;0.10;;;0.10;;
25187;SDS011;13141;50.414;8.050;2022-07-23T03:00:10;0.20;;;0.20;;
25187;SDS011;13141;50.414;8.050;2022-07-23T03:02:36;0.20;;;0.20;;
25187;SDS011;13141;50.414;8.050;2022-07-23T03:05:01;0.15;;;0.15;;
25187;SDS011;13141;50.414;8.050;2022-07-23T03:07:27;0.10;;;0.10;;
25187;SDS011;13141;50.414;8.050;2022-07-23T03:09:53;0.10;;;0.10;;
25187;SDS011;13141;50.414;8.050;2022-07-23T03:12:18;0.10;;;0.10;;
25187;SDS011;13141;50.414;8.050;2022-07-23T03:14:44;0.10;;;0.10;;
25187;SDS011;13141;50.414;8.050;2022-07-23T03:17:09;0.17;;;0.17;;
25187;SDS011;13141;50.414;8.050;2022-07-23T03:19:35;0.17;;;0.17;;
25187;SDS011;13141;50.414;8.050;2022-07-23T03:22:02;0.20;;;0.20;;
25187;SDS011;13141;50.414;8.050;2022-07-23T03:24:28;0.10;;;0.10;;
25187;SDS011;13141;50.414;8.050;2022-07-23T03:27:13;0.20;;;0.20;;
25187;SDS011;13141;50.414;8.050;2022-07-23T03:29:39;0.10;;;0.10;;
25187;SDS011;13141;50.414;8.050;2022-07-23T03:32:05;0.20;;;0.20;;
25187;SDS011;13141;50.414;8.050;2022-07-23T03:34:31;0.20;;;0.20;;
25187;SDS011;13141;50.414;8.050;2022-07-23T03:36:56;0.10;;;0.10;;
25187;SDS011;13141;50.414;8.050;2022-07-23T03:39:22;0.10;;;0.10;;
25187;SDS011;13141;50.414;8.050;2022-07-23T03:41:47;0.10;;;0.10;;
25187;SDS011;13141;50.414;8.050;2022-07-23T03:44:13;0.13;;;0.13;;
25187;SDS011;13141;50.414;8.050;2022-07-23T03:46:39;0.10;;;0.10;;
25187;SDS011;13141;50.414;8.050;2022-07-23T03:49:04;0.10;;;0.10;;
25187;SDS011;13141;50.414;8.050;2022-07-23T03:51:30;0.10;;;0.10;;
25187;SDS011;13141;50.414;8.050;2022-07-23T03:53:55;0.10;;;0.10;;
25187;SDS011;13141;50.414;8.050;2022-07-23T03:56:21;0.10;;;0.10;;
25187;SDS011;13141;50.414;8.050;2022-07-23T03:58:47;0.10;;;0.10;;
25187;SDS011;13141;50.414;8.050;2022-07-23T04:01:12;0.20;;;0.20;;
25187;SDS011;13141;50.414;8.050;2022-07-23T04:03:38;0.10;;;0.10;;
25187;SDS011;13141;50.414;8.050;2022-07-23T04:06:04;0.10;;;0.10;;
25187;SDS011;13141;50.414;8.050;2022-07-23T04:08:30;0.10;;;0.10;;
25187;SDS011;13141;50.414;8.050;2022-07-23T04:10:56;0.10;;;0.10;;
25187;SDS011;13141;50.414;8.050;2022-07-23T04:13:21;0.20;;;0.20;;
25187;SDS011;13141;50.414;8.050;2022-07-23T04:15:47;0.10;;;0.10;;
25187;SDS011;13141;50.414;8.050;2022-07-23T04:18:12;0.10;;;0.10;;
25187;SDS011;13141;50.414;8.050;2022-07-23T04:20:38;0.13;;;0.13;;
25187;SDS011;13141;50.414;8.050;2022-07-23T04:23:04;0.10;;;0.10;;
25187;SDS011;13141;50.414;8.050;2022-07-23T04:25:29;0.10;;;0.10;;
25187;SDS011;13141;50.414;8.050;2022-07-23T04:27:55;0.20;;;0.20;;
25187;SDS011;13141;50.414;8.050;2022-07-23T04:30:21;0.10;;;0.10;;
25187;SDS011;13141;50.414;8.050;2022-07-23T04:32:46;0.10;;;0.10;;
25187;SDS011;13141;50.414;8.050;2022-07-23T04:35:12;0.20;;;0.20;;
25187;SDS011;13141;50.414;8.050;2022-07-23T04:37:37;0.10;;;0.10;;
25187;SDS011;13141;50.414;8.050;2022-07-23T04:40:03;0.10;;;0.10;;
25187;SDS011;13141;50.414;8.050;2022-07-23T04:42:29;0.10;;;0.10;;
25187;SDS011;13141;50.414;8.050;2022-07-23T04:44:55;0.10;;;0.10;;
25187;SDS011;13141;50.414;8.050;2022-07-23T04:47:20;0.10;;;0.10;;
25187;SDS011;13141;50.414;8.050;2022-07-23T04:49:46;0.20;;;0.20;;
25187;SDS011;13141;50.414;8.050;2022-07-23T04:52:11;0.17;;;0.17;;
25187;SDS011;13141;50.414;8.050;2022-07-23T04:54:37;0.10;;;0.10;;
25187;SDS011;13141;50.414;8.050;2022-07-23T04:57:02;0.15;;;0.15;;
25187;SDS011;13141;50.414;8.050;2022-07-23T04:59:28;0.15;;;0.15;;
25187;SDS011;13141;50.414;8.050;2022-07-23T05:01:53;0.10;;;0.10;;
25187;SDS011;13141;50.414;8.050;2022-07-23T05:04:19;0.10;;;0.10;;
25187;SDS011;13141;50.414;8.050;2022-07-23T05:06:45;0.10;;;0.10;;
25187;SDS011;13141;50.414;8.050;2022-07-23T05:09:10;0.10;;;0.10;;
25187;SDS011;13141;50.414;8.050;2022-07-23T05:11:36;0.13;;;0.13;;
25187;SDS011;13141;50.414;8.050;2022-07-23T05:14:01;0.17;;;0.17;;
25187;SDS011;13141;50.414;8.050;2022-07-23T05:16:27;0.20;;;0.20;;
25187;SDS011;13141;50.414;8.050;2022-07-23T05:18:53;0.13;;;0.13;;
25187;SDS011;13141;50.414;8.050;2022-07-23T05:21:19;0.10;;;0.10;;
25187;SDS011;13141;50.414;8.050;2022-07-23T05:23:45;0.10;;;0.10;;
25187;SDS011;13141;50.414;8.050;2022-07-23T05:26:10;0.10;;;0.10;;
25187;SDS011;13141;50.414;8.050;2022-07-23T05:28:36;0.10;;;0.10;;
25187;SDS011;13141;50.414;8.050;2022-07-23T05:31:02;0.10;;;0.10;;
25187;SDS011;13141;50.414;8.050;2022-07-23T05:33:28;0.10;;;0.10;;
25187;SDS011;13141;50.414;8.050;2022-07-23T05:35:59;0.20;;;0.20;;
25187;SDS011;13141;50.414;8.050;2022-07-23T05:38:26;0.10;;;0.10;;
25187;SDS011;13141;50.414;8.050;2022-07-23T05:40:52;0.10;;;0.10;;
25187;SDS011;13141;50.414;8.050;2022-07-23T05:43:17;0.10;;;0.10;;
25187;SDS011;13141;50.414;8.050;2022-07-23T05:45:43;0.20;;;0.20;;
25187;SDS011;13141;50.414;8.050;2022-07-23T05:48:08;0.20;;;0.20;;
25187;SDS011;13141;50.414;8.050;2022-07-23T05:50:34;0.15;;;0.15;;
25187;SDS011;13141;50.414;8.050;2022-07-23T05:53:00;0.10;;;0.10;;
25187;SDS011;13141;50.414;8.050;2022-07-23T05:55:26;0.10;;;0.10;;
25187;SDS011;13141;50.414;8.050;2022-07-23T05:57:54;0.10;;;0.10;;
25187;SDS011;13141;50.414;8.050;2022-07-23T06:00:20;0.20;;;0.20;;
25187;SDS011;13141;50.414;8.050;2022-07-23T06:02:46;0.10;;;0.10;;
25187;SDS011;13141;50.414;8.050;2022-07-23T06:05:12;0.20;;;0.20;;
25187;SDS011;13141;50.414;8.050;2022-07-23T06:07:41;0.20;;;0.20;;
25187;SDS011;13141;50.414;8.050;2022-07-23T06:10:07;0.10;;;0.10;;
25187;SDS011;13141;50.414;8.050;2022-07-23T06:12:33;0.10;;;0.10;;
25187;SDS011;13141;50.414;8.050;2022-07-23T06:14:59;0.20;;;0.20;;
25187;SDS011;13141;50.414;8.050;2022-07-23T06:17:25;0.13;;;0.13;;
25187;SDS011;13141;50.414;8.050;2022-07-23T06:19:51;0.10;;;0.10;;
25187;SDS011;13141;50.414;8.050;2022-07-23T06:22:16;0.13;;;0.13;;
25187;SDS011;13141;50.414;8.050;2022-07-23T06:24:42;0.10;;;0.10;;
25187;SDS011;13141;50.414;8.050;2022-07-23T06:27:08;0.20;;;0.20;;
25187;SDS011;13141;50.414;8.050;2022-07-23T06:32:09;0.20;;;0.20;;
25187;SDS011;13141;50.414;8.050;2022-07-23T06:34:34;0.17;;;0.17;;
25187;SDS011;13141;50.414;8.050;2022-07-23T06:37:00;0.20;;;0.20;;
25187;SDS011;13141;50.414;8.050;2022-07-23T06:39:26;0.10;;;0.10;;
25187;SDS011;13141;50.414;8.050;2022-07-23T06:41:52;0.10;;;0.10;;
25187;SDS011;13141;50.414;8.050;2022-07-23T06:44:18;0.20;;;0.20;;
25187;SDS011;13141;50.414;8.050;2022-07-23T06:46:43;0.20;;;0.20;;
25187;SDS011;13141;50.414;8.050;2022-07-23T06:49:09;0.10;;;0.10;;
25187;SDS011;13141;50.414;8.050;2022-07-23T06:51:35;0.10;;;0.10;;
25187;SDS011;13141;50.414;8.050;2022-07-23T06:54:01;0.10;;;0.10;;
25187;SDS011;13141;50.414;8.050;2022-07-23T06:56:26;0.20;;;0.20;;
25187;SDS011;13141;50.414;8.050;2022-07-23T06:58:52;0.10;;;0.10;;
25187;SDS011;13141;50.414;8.050;2022-07-23T07:01:18;0.10;;;0.10;;
25187;SDS011;13141;50.414;8.050;2022-07-23T07:03:43;0.20;;;0.20;;
25187;SDS011;13141;50.414;8.050;2022-07-23T07:06:09;0.20;;;0.20;;
25187;SDS011;13141;50.414;8.050;2022-07-23T07:08:35;0.17;;;0.17;;
25187;SDS011;13141;50.414;8.050;2022-07-23T07:11:00;0.20;;;0.20;;
25187;SDS011;13141;50.414;8.050;2022-07-23T07:13:26;0.10;;;0.10;;
25187;SDS011;13141;50.414;8.050;2022-07-23T07:15:51;0.20;;;0.20;;
25187;SDS011;13141;50.414;8.050;2022-07-23T07:18:17;0.10;;;0.10;;
25187;SDS011;13141;50.414;8.050;2022-07-23T07:20:42;0.10;;;0.10;;
25187;SDS011;13141;50.414;8.050;2022-07-23T07:23:08;0.10;;;0.10;;
25187;SDS011;13141;50.414;8.050;2022-07-23T07:25:34;0.15;;;0.15;;
25187;SDS011;13141;50.414;8.050;2022-07-23T07:27:59;0.20;;;0.20;;
25187;SDS011;13141;50.414;8.050;2022-07-23T07:30:25;0.20;;;0.20;;
25187;SDS011;13141;50.414;8.050;2022-07-23T07:32:51;0.15;;;0.15;;
25187;SDS011;13141;50.414;8.050;2022-07-23T07:35:16;0.20;;;0.20;;
25187;SDS011;13141;50.414;8.050;2022-07-23T07:37:42;0.15;;;0.15;;
25187;SDS011;13141;50.414;8.050;2022-07-23T07:40:07;0.20;;;0.20;;
25187;SDS011;13141;50.414;8.050;2022-07-23T07:42:33;0.20;;;0.20;;
25187;SDS011;13141;50.414;8.050;2022-07-23T07:44:59;0.20;;;0.20;;
25187;SDS011;13141;50.414;8.050;2022-07-23T07:47:24;0.17;;;0.17;;
25187;SDS011;13141;50.414;8.050;2022-07-23T07:49:50;0.20;;;0.20;;
25187;SDS011;13141;50.414;8.050;2022-07-23T07:52:16;0.13;;;0.13;;
25187;SDS011;13141;50.414;8.050;2022-07-23T07:54:41;0.10;;;0.10;;
25187;SDS011;13141;50.414;8.050;2022-07-23T07:57:07;0.13;;;0.13;;
25187;SDS011;13141;50.414;8.050;2022-07-23T07:59:33;0.10;;;0.10;;
25187;SDS011;13141;50.414;8.050;2022-07-23T08:01:59;0.20;;;0.20;;
25187;SDS011;13141;50.414;8.050;2022-07-23T08:04:24;0.20;;;0.20;;
25187;SDS011;13141;50.414;8.050;2022-07-23T08:06:50;0.17;;;0.17;;
25187;SDS011;13141;50.414;8.050;2022-07-23T08:09:15;0.10;;;0.10;;
25187;SDS011;13141;50.414;8.050;2022-07-23T08:11:41;0.10;;;0.10;;
25187;SDS011;13141;50.414;8.050;2022-07-23T08:14:06;0.15;;;0.15;;
25187;SDS011;13141;50.414;8.050;2022-07-23T08:16:32;0.20;;;0.20;;
25187;SDS011;13141;50.414;8.050;2022-07-23T08:18:58;0.20;;;0.20;;
25187;SDS011;13141;50.414;8.050;2022-07-23T08:21:23;0.10;;;0.10;;
25187;SDS011;13141;50.414;8.050;2022-07-23T08:23:49;0.10;;;0.10;;
25187;SDS011;13141;50.414;8.050;2022-07-23T08:26:14;0.10;;;0.10;;
25187;SDS011;13141;50.414;8.050;2022-07-23T08:28:40;0.20;;;0.20;;
25187;SDS011;13141;50.414;8.050;2022-07-23T08:31:05;0.20;;;0.20;;
25187;SDS011;13141;50.414;8.050;2022-07-23T08:33:31;0.20;;;0.20;;
25187;SDS011;13141;50.414;8.050;2022-07-23T08:35:57;0.20;;;0.20;;
25187;SDS011;13141;50.414;8.050;2022-07-23T08:38:23;0.10;;;0.10;;
25187;SDS011;13141;50.414;8.050;2022-07-23T08:40:51;0.22;;;0.22;;
25187;SDS011;13141;50.414;8.050;2022-07-23T08:43:22;0.20;;;0.20;;
25187;SDS011;13141;50.414;8.050;2022-07-23T08:45:51;0.20;;;0.20;;
25187;SDS011;13141;50.414;8.050;2022-07-23T08:48:19;0.20;;;0.20;;
25187;SDS011;13141;50.414;8.050;2022-07-23T08:50:48;0.10;;;0.10;;
25187;SDS011;13141;50.414;8.050;2022-07-23T08:53:16;0.20;;;0.20;;
25187;SDS011;13141;50.414;8.050;2022-07-23T08:55:43;0.20;;;0.20;;
25187;SDS011;13141;50.414;8.050;2022-07-23T08:58:14;0.20;;;0.20;;
25187;SDS011;13141;50.414;8.050;2022-07-23T09:00:40;0.20;;;0.20;;
25187;SDS011;13141;50.414;8.050;2022-07-23T09:03:07;0.10;;;0.10;;
25187;SDS011;13141;50.414;8.050;2022-07-23T09:05:32;0.13;;;0.13;;
25187;SDS011;13141;50.414;8.050;2022-07-23T09:10:36;0.30;;;0.30;;
25187;SDS011;13141;50.414;8.050;2022-07-23T09:15:56;0.20;;;0.20;;
25187;SDS011;13141;50.414;8.050;2022-07-23T09:21:06;0.20;;;0.20;;
25187;SDS011;13141;50.414;8.050;2022-07-23T09:23:37;0.30;;;0.30;;
25187;SDS011;13141;50.414;8.050;2022-07-23T09:26:17;0.20;;;0.20;;
25187;SDS011;13141;50.414;8.050;2022-07-23T09:28:52;0.25;;;0.25;;
25187;SDS011;13141;50.414;8.050;2022-07-23T09:31:46;0.20;;;0.20;;
25187;SDS011;13141;50.414;8.050;2022-07-23T09:36:53;0.20;;;0.20;;
25187;SDS011;13141;50.414;8.050;2022-07-23T09:39:30;0.17;;;0.17;;
25187;SDS011;13141;50.414;8.050;2022-07-23T09:41:58;0.20;;;0.20;;
25187;SDS011;13141;50.414;8.050;2022-07-23T09:44:42;0.20;;;0.20;;
25187;SDS011;13141;50.414;8.050;2022-07-23T09:47:09;0.25;;;0.25;;
25187;SDS011;13141;50.414;8.050;2022-07-23T09:49:35;0.22;;;0.22;;
25187;SDS011;13141;50.414;8.050;2022-07-23T09:52:01;0.22;;;0.22;;
25187;SDS011;13141;50.414;8.050;2022-07-23T09:54:34;0.20;;;0.20;;
25187;SDS011;13141;50.414;8.050;2022-07-23T09:57:09;0.22;;;0.22;;
25187;SDS011;13141;50.414;8.050;2022-07-23T09:59:40;0.20;;;0.20;;
25187;SDS011;13141;50.414;8.050;2022-07-23T10:02:07;0.20;;;0.20;;
25187;SDS011;13141;50.414;8.050;2022-07-23T10:04:34;0.20;;;0.20;;
25187;SDS011;13141;50.414;8.050;2022-07-23T10:07:01;0.20;;;0.20;;
25187;SDS011;13141;50.414;8.050;2022-07-23T10:09:29;0.20;;;0.20;;
25187;SDS011;13141;50.414;8.050;2022-07-23T10:11:57;0.20;;;0.20;;
25187;SDS011;13141;50.414;8.050;2022-07-23T10:14:47;0.20;;;0.20;;
25187;SDS011;13141;50.414;8.050;2022-07-23T10:17:13;0.20;;;0.20;;
25187;SDS011;13141;50.414;8.050;2022-07-23T10:19:39;0.20;;;0.20;;
25187;SDS011;13141;50.414;8.050;2022-07-23T10:22:09;0.15;;;0.15;;
25187;SDS011;13141;50.414;8.050;2022-07-23T10:27:44;0.30;;;0.30;;
25187;SDS011;13141;50.414;8.050;2022-07-23T10:35:50;0.28;;;0.28;;
25187;SDS011;13141;50.414;8.050;2022-07-23T10:38:27;0.30;;;0.30;;
25187;SDS011;13141;50.414;8.050;2022-07-23T10:43:24;0.20;;;0.20;;
25187;SDS011;13141;50.414;8.050;2022-07-23T10:45:50;0.28;;;0.28;;
25187;SDS011;13141;50.414;8.050;2022-07-23T10:48:20;0.40;;;0.40;;
25187;SDS011;13141;50.414;8.050;2022-07-23T10:53:57;0.40;;;0.40;;
25187;SDS011;13141;50.414;8.050;2022-07-23T10:59:21;0.30;;;0.30;;
25187;SDS011;13141;50.414;8.050;2022-07-23T11:01:47;0.30;;;0.30;;
25187;SDS011;13141;50.414;8.050;2022-07-23T11:04:12;0.20;;;0.20;;
25187;SDS011;13141;50.414;8.050;2022-07-23T11:22:34;0.30;;;0.30;;
25187;SDS011;13141;50.414;8.050;2022-07-23T11:25:01;0.30;;;0.30;;
25187;SDS011;13141;50.414;8.050;2022-07-23T11:27:45;0.30;;;0.30;;
25187;SDS011;13141;50.414;8.050;2022-07-23T11:32:52;0.40;;;0.40;;
25187;SDS011;13141;50.414;8.050;2022-07-23T11:35:48;0.30;;;0.30;;
25187;SDS011;13141;50.414;8.050;2022-07-23T11:38:24;0.30;;;0.30;;
25187;SDS011;13141;50.414;8.050;2022-07-23T11:40:50;0.30;;;0.30;;
25187;SDS011;13141;50.414;8.050;2022-07-23T11:43:18;0.20;;;0.20;;
25187;SDS011;13141;50.414;8.050;2022-07-23T11:45:45;0.30;;;0.30;;
25187;SDS011;13141;50.414;8.050;2022-07-23T11:50:44;0.30;;;0.30;;
25187;SDS011;13141;50.414;8.050;2022-07-23T11:53:09;0.30;;;0.30;;
25187;SDS011;13141;50.414;8.050;2022-07-23T11:55:35;0.30;;;0.30;;
25187;SDS011;13141;50.414;8.050;2022-07-23T11:58:01;0.20;;;0.20;;
25187;SDS011;13141;50.414;8.050;2022-07-23T12:00:27;0.28;;;0.28;;
25187;SDS011;13141;50.414;8.050;2022-07-23T12:02:58;0.30;;;0.30;;
25187;SDS011;13141;50.414;8.050;2022-07-23T12:05:27;0.30;;;0.30;;
25187;SDS011;13141;50.414;8.050;2022-07-23T12:07:55;0.25;;;0.25;;
25187;SDS011;13141;50.414;8.050;2022-07-23T12:10:23;0.25;;;0.25;;
25187;SDS011;13141;50.414;8.050;2022-07-23T12:15:18;0.32;;;0.32;;
25187;SDS011;13141;50.414;8.050;2022-07-23T12:17:48;0.30;;;0.30;;
25187;SDS011;13141;50.414;8.050;2022-07-23T12:20:16;0.30;;;0.30;;
25187;SDS011;13141;50.414;8.050;2022-07-23T12:22:47;0.40;;;0.40;;
25187;SDS011;13141;50.414;8.050;2022-07-23T12:25:15;0.30;;;0.30;;
25187;SDS011;13141;50.414;8.050;2022-07-23T12:27:43;0.30;;;0.30;;
25187;SDS011;13141;50.414;8.050;2022-07-23T12:32:44;0.30;;;0.30;;
25187;SDS011;13141;50.414;8.050;2022-07-23T12:35:11;0.30;;;0.30;;
25187;SDS011;13141;50.414;8.050;2022-07-23T12:37:38;0.30;;;0.30;;
25187;SDS011;13141;50.414;8.050;2022-07-23T12:40:25;0.30;;;0.30;;
25187;SDS011;13141;50.414;8.050;2022-07-23T12:42:57;0.30;;;0.30;;
25187;SDS011;13141;50.414;8.050;2022-07-23T12:45:25;0.40;;;0.40;;
25187;SDS011;13141;50.414;8.050;2022-07-23T12:48:02;0.30;;;0.30;;
25187;SDS011;13141;50.414;8.050;2022-07-23T12:50:41;0.40;;;0.40;;
25187;SDS011;13141;50.414;8.050;2022-07-23T12:53:15;0.40;;;0.40;;
25187;SDS011;13141;50.414;8.050;2022-07-23T12:55:42;0.40;;;0.40;;
25187;SDS011;13141;50.414;8.050;2022-07-23T12:58:19;0.40;;;0.40;;
25187;SDS011;13141;50.414;8.050;2022-07-23T13:01:53;0.50;;;0.50;;
25187;SDS011;13141;50.414;8.050;2022-07-23T13:06:29;0.25;;;0.25;;
25187;SDS011;13141;50.414;8.050;2022-07-23T13:08:58;0.40;;;0.40;;
25187;SDS011;13141;50.414;8.050;2022-07-23T13:11:23;0.30;;;0.30;;
25187;SDS011;13141;50.414;8.050;2022-07-23T13:13:49;0.30;;;0.30;;
25187;SDS011;13141;50.414;8.050;2022-07-23T13:16:15;0.40;;;0.40;;
25187;SDS011;13141;50.414;8.050;2022-07-23T13:18:41;0.30;;;0.30;;
25187;SDS011;13141;50.414;8.050;2022-07-23T13:21:06;0.40;;;0.40;;
25187;SDS011;13141;50.414;8.050;2022-07-23T13:23:33;0.30;;;0.30;;
25187;SDS011;13141;50.414;8.050;2022-07-23T13:25:58;0.32;;;0.32;;
25187;SDS011;13141;50.414;8.050;2022-07-23T13:28:24;0.40;;;0.40;;
25187;SDS011;13141;50.414;8.050;2022-07-23T13:30:50;0.30;;;0.30;;
25187;SDS011;13141;50.414;8.050;2022-07-23T13:33:17;0.40;;;0.40;;
25187;SDS011;13141;50.414;8.050;2022-07-23T13:35:44;0.25;;;0.25;;
25187;SDS011;13141;50.414;8.050;2022-07-23T13:38:10;0.28;;;0.28;;
25187;SDS011;13141;50.414;8.050;2022-07-23T13:40:40;0.40;;;0.40;;
25187;SDS011;13141;50.414;8.050;2022-07-23T13:43:08;0.35;;;0.35;;
25187;SDS011;13141;50.414;8.050;2022-07-23T13:45:34;0.40;;;0.40;;
25187;SDS011;13141;50.414;8.050;2022-07-23T13:48:01;0.32;;;0.32;;
25187;SDS011;13141;50.414;8.050;2022-07-23T13:50:27;0.32;;;0.32;;
25187;SDS011;13141;50.414;8.050;2022-07-23T13:52:53;0.40;;;0.40;;
25187;SDS011;13141;50.414;8.050;2022-07-23T13:55:19;0.40;;;0.40;;
25187;SDS011;13141;50.414;8.050;2022-07-23T13:57:44;0.30;;;0.30;;
25187;SDS011;13141;50.414;8.050;2022-07-23T14:00:10;0.30;;;0.30;;
25187;SDS011;13141;50.414;8.050;2022-07-23T14:02:37;0.40;;;0.40;;
25187;SDS011;13141;50.414;8.050;2022-07-23T14:05:08;0.40;;;0.40;;
25187;SDS011;13141;50.414;8.050;2022-07-23T14:07:35;0.40;;;0.40;;
25187;SDS011;13141;50.414;8.050;2022-07-23T14:10:02;0.50;;;0.50;;
25187;SDS011;13141;50.414;8.050;2022-07-23T14:12:28;0.40;;;0.40;;
25187;SDS011;13141;50.414;8.050;2022-07-23T14:14:55;0.32;;;0.32;;
25187;SDS011;13141;50.414;8.050;2022-07-23T14:17:21;0.30;;;0.30;;
25187;SDS011;13141;50.414;8.050;2022-07-23T14:19:47;0.30;;;0.30;;
25187;SDS011;13141;50.414;8.050;2022-07-23T14:22:13;0.20;;;0.20;;
25187;SDS011;13141;50.414;8.050;2022-07-23T14:24:38;0.45;;;0.45;;
25187;SDS011;13141;50.414;8.050;2022-07-23T14:27:04;0.40;;;0.40;;
25187;SDS011;13141;50.414;8.050;2022-07-23T14:29:30;0.37;;;0.37;;
25187;SDS011;13141;50.414;8.050;2022-07-23T14:31:56;0.25;;;0.25;;
25187;SDS011;13141;50.414;8.050;2022-07-23T14:34:22;0.40;;;0.40;;
25187;SDS011;13141;50.414;8.050;2022-07-23T14:36:48;0.40;;;0.40;;
25187;SDS011;13141;50.414;8.050;2022-07-23T14:39:13;0.30;;;0.30;;
25187;SDS011;13141;50.414;8.050;2022-07-23T14:41:39;0.20;;;0.20;;
25187;SDS011;13141;50.414;8.050;2022-07-23T14:44:05;0.20;;;0.20;;
25187;SDS011;13141;50.414;8.050;2022-07-23T14:46:30;0.35;;;0.35;;
25187;SDS011;13141;50.414;8.050;2022-07-23T14:48:56;0.40;;;0.40;;
25187;SDS011;13141;50.414;8.050;2022-07-23T14:51:22;0.20;;;0.20;;
25187;SDS011;13141;50.414;8.050;2022-07-23T14:53:47;0.30;;;0.30;;
25187;SDS011;13141;50.414;8.050;2022-07-23T14:56:13;0.30;;;0.30;;
25187;SDS011;13141;50.414;8.050;2022-07-23T14:58:39;0.20;;;0.20;;
25187;SDS011;13141;50.414;8.050;2022-07-23T15:01:05;0.40;;;0.40;;
25187;SDS011;13141;50.414;8.050;2022-07-23T15:03:31;0.30;;;0.30;;
25187;SDS011;13141;50.414;8.050;2022-07-23T15:05:57;0.30;;;0.30;;
25187;SDS011;13141;50.414;8.050;2022-07-23T15:08:23;0.30;;;0.30;;
25187;SDS011;13141;50.414;8.050;2022-07-23T15:10:49;0.20;;;0.20;;
25187;SDS011;13141;50.414;8.050;2022-07-23T15:13:14;0.40;;;0.40;;
25187;SDS011;13141;50.414;8.050;2022-07-23T15:15:40;0.20;;;0.20;;
25187;SDS011;13141;50.414;8.050;2022-07-23T15:18:06;0.30;;;0.30;;
25187;SDS011;13141;50.414;8.050;2022-07-23T15:20:31;0.20;;;0.20;;
25187;SDS011;13141;50.414;8.050;2022-07-23T15:22:57;0.37;;;0.37;;
25187;SDS011;13141;50.414;8.050;2022-07-23T15:25:23;0.30;;;0.30;;
25187;SDS011;13141;50.414;8.050;2022-07-23T15:27:49;0.30;;;0.30;;
25187;SDS011;13141;50.414;8.050;2022-07-23T15:30:14;0.30;;;0.30;;
25187;SDS011;13141;50.414;8.050;2022-07-23T15:32:40;0.35;;;0.35;;
25187;SDS011;13141;50.414;8.050;2022-07-23T15:35:06;0.30;;;0.30;;
25187;SDS011;13141;50.414;8.050;2022-07-23T15:37:33;0.30;;;0.30;;
25187;SDS011;13141;50.414;8.050;2022-07-23T15:39:59;0.30;;;0.30;;
25187;SDS011;13141;50.414;8.050;2022-07-23T15:42:25;0.30;;;0.30;;
25187;SDS011;13141;50.414;8.050;2022-07-23T15:44:50;0.40;;;0.40;;